Toledo, Ohio
Current Conditions -  °F | °C
As of 5:53 PM on Tuesday 27 Jan 2015 (Local Time) from KTDZ Reporting Station
Clear Clear  
Wind Chill: 18°   Ceiling: Unl
Heat Index: 24°   Visibility: 10mi
Dew Point: 10°   Wind: 5mph
Humidity: 55%   Direction: 340°NNW
Pressure: 30.17"   Gusts: NA
Location:  41.65°N, 83.54°W
Report Text: KTDZ 272253Z AUTO 34004KT 10SM CLR M04/M12 A3017 RMK AO2 SLP227 T10441122 TSNO
Loading
Personal Weather Stations






























Interactive Weather Map New forecast layout! Learn more

10-Day Weather Forecast

Advertisements
Track Severe Weather on mobile